createdAt,value
2022-12-01T00:00:30.543Z,101388.63
2022-12-01T00:02:58.873Z,101387.56
2022-12-01T00:05:26.750Z,101374.88
2022-12-01T00:07:54.586Z,101386.13
2022-12-01T00:10:27.092Z,101384.09
2022-12-01T00:12:54.891Z,101381.88
2022-12-01T00:15:22.680Z,101376.44
2022-12-01T00:17:50.489Z,101377.09
2022-12-01T00:20:18.240Z,101373.34
2022-12-01T00:22:46.071Z,101370.47
2022-12-01T00:25:14.061Z,101370.94
2022-12-01T00:27:41.910Z,101371.97
2022-12-01T00:30:09.868Z,101376.72
2022-12-01T00:32:37.682Z,101373.66
2022-12-01T00:35:05.431Z,101365.34
2022-12-01T00:37:33.262Z,101374.84
2022-12-01T00:40:01.054Z,101373.31
2022-12-01T00:42:28.817Z,101371.44
2022-12-01T00:44:56.562Z,101370.06
2022-12-01T00:47:24.337Z,101366.97
2022-12-01T00:49:52.442Z,101367.47
2022-12-01T00:52:20.217Z,101374.66
2022-12-01T00:54:48.118Z,101371.75
2022-12-01T00:57:15.913Z,101372.59
2022-12-01T00:59:43.690Z,101378.88
2022-12-01T01:02:11.901Z,101381.59
2022-12-01T01:04:39.687Z,101379.41
2022-12-01T01:07:07.558Z,101377.53
2022-12-01T01:09:35.364Z,101382.28
2022-12-01T01:12:03.160Z,101387.03
2022-12-01T01:14:31.260Z,101384.59
2022-12-01T01:16:59.355Z,101400.25
2022-12-01T01:32:06.222Z,101391.88
2022-12-01T01:34:34.135Z,101390.34
2022-12-01T01:37:02.099Z,101393.22
2022-12-01T01:39:30.285Z,101395.94
2022-12-01T01:41:58.062Z,101393.38
2022-12-01T01:44:26.102Z,101394.38
2022-12-01T01:46:53.993Z,101392.53
2022-12-01T01:49:21.766Z,101385.38
2022-12-01T01:51:49.620Z,101385.38
2022-12-01T01:54:17.560Z,101391.00
2022-12-01T01:56:45.316Z,101393.88
2022-12-01T01:59:13.200Z,101398.28
2022-12-01T02:01:41.002Z,101398.28
2022-12-01T02:04:08.961Z,101393.38
2022-12-01T02:06:36.880Z,101392.38
2022-12-01T02:09:04.655Z,101401.72
2022-12-01T02:11:32.534Z,101397.44
2022-12-01T02:14:00.337Z,101401.88
2022-12-01T02:16:28.224Z,101392.31
2022-12-01T02:18:56.270Z,101386.00
2022-12-01T02:21:24.114Z,101393.34
2022-12-01T02:23:51.921Z,101389.22
2022-12-01T02:26:19.722Z,101382.22
2022-12-01T02:28:47.530Z,101386.09
2022-12-01T02:31:15.443Z,101387.34
2022-12-01T02:33:43.258Z,101388.03
2022-12-01T02:36:11.048Z,101395.69
2022-12-01T02:38:38.971Z,101391.69
2022-12-01T02:41:06.890Z,101392.06
2022-12-01T02:43:34.832Z,101391.22
2022-12-01T02:46:02.680Z,101391.88
2022-12-01T02:48:30.570Z,101387.59
2022-12-01T02:50:58.539Z,101395.91
2022-12-01T02:53:26.390Z,101390.00
2022-12-01T02:55:54.259Z,101391.88
2022-12-01T02:58:22.038Z,101392.03
2022-12-01T03:00:49.880Z,101394.06
2022-12-01T03:03:17.848Z,101391.19
2022-12-01T03:05:45.616Z,101390.00
2022-12-01T03:08:14.134Z,101389.31
2022-12-01T03:10:41.919Z,101393.19
2022-12-01T03:13:09.910Z,101397.66
2022-12-01T03:15:37.772Z,101387.44
2022-12-01T03:18:05.584Z,101388.63
2022-12-01T03:20:33.611Z,101395.06
2022-12-01T03:23:01.424Z,101394.22
2022-12-01T03:25:29.206Z,101403.25
2022-12-01T03:28:20.054Z,101399.81
2022-12-01T03:30:44.763Z,101398.25
2022-12-01T03:33:12.590Z,101398.44
2022-12-01T03:35:41.886Z,101403.31
2022-12-01T03:38:09.678Z,101402.47
2022-12-01T03:40:37.857Z,101410.63
2022-12-01T03:43:07.304Z,101405.38
2022-12-01T03:45:35.274Z,101409.78
2022-12-01T03:48:03.026Z,101402.78
2022-12-01T03:50:30.807Z,101398.50
2022-12-01T03:52:58.609Z,101403.97
2022-12-01T03:55:26.386Z,101401.09
2022-12-01T03:57:54.181Z,101407.06
2022-12-01T04:00:22.032Z,101406.69
2022-12-01T04:02:49.976Z,101406.38
2022-12-01T04:05:22.449Z,101413.16
2022-12-01T04:07:53.007Z,101415.50
2022-12-01T04:10:20.914Z,101408.00
2022-12-01T04:12:47.751Z,101408.00
2022-12-01T04:15:15.535Z,101423.81
2022-12-01T04:17:44.577Z,101417.81
2022-12-01T04:20:12.355Z,101408.63
2022-12-01T04:22:40.143Z,101411.53
2022-12-01T04:25:08.024Z,101413.06
2022-12-01T04:27:35.879Z,101416.47
2022-12-01T04:30:03.842Z,101424.97
2022-12-01T04:32:31.652Z,101423.94
2022-12-01T04:34:59.537Z,101422.00
2022-12-01T04:37:27.362Z,101415.94
2022-12-01T04:39:55.137Z,101424.81
2022-12-01T04:42:22.984Z,101431.25
2022-12-01T04:44:50.762Z,101428.84
2022-12-01T04:47:18.538Z,101427.81
2022-12-01T04:49:46.486Z,101428.72
2022-12-01T04:52:14.411Z,101428.72
2022-12-01T04:54:42.279Z,101437.88
2022-12-01T04:57:10.095Z,101436.00
2022-12-01T04:59:37.918Z,101443.50
2022-12-01T05:02:05.691Z,101444.47
2022-12-01T05:04:34.238Z,101444.81
2022-12-01T05:07:02.032Z,101443.09
2022-12-01T05:09:29.854Z,101454.97
2022-12-01T05:11:57.726Z,101453.13
2022-12-01T05:14:25.538Z,101444.41
2022-12-01T05:16:54.531Z,101453.28
2022-12-01T05:19:40.046Z,101448.16
2022-12-01T05:22:09.843Z,101448.44
2022-12-01T05:24:38.050Z,101448.63
2022-12-01T05:27:05.735Z,101450.50
2022-12-01T05:29:34.244Z,101448.75
2022-12-01T05:32:03.127Z,101452.50
2022-12-01T05:34:30.896Z,101450.81
2022-12-01T05:36:58.759Z,101459.13
2022-12-01T05:39:26.511Z,101456.25
2022-12-01T05:41:54.252Z,101462.69
2022-12-01T05:44:22.049Z,101459.25
2022-12-01T05:46:49.763Z,101462.84
2022-12-01T05:49:17.439Z,101463.84
2022-12-01T05:51:45.151Z,101459.25
2022-12-01T05:54:12.875Z,101461.97
2022-12-01T05:56:40.611Z,101469.16
2022-12-01T05:59:08.386Z,101465.41
2022-12-01T06:01:36.248Z,101462.84
2022-12-01T06:04:04.365Z,101465.88
2022-12-01T06:06:32.184Z,101464.31
2022-12-01T06:08:59.918Z,101465.47
2022-12-01T06:11:27.633Z,101464.63
2022-12-01T06:13:55.382Z,101467.66
2022-12-01T06:16:23.206Z,101469.53
2022-12-01T06:18:50.981Z,101463.19
2022-12-01T06:21:18.706Z,101470.47
2022-12-01T06:23:46.387Z,101468.63
2022-12-01T06:26:14.142Z,101466.34
2022-12-01T06:28:41.902Z,101472.78
2022-12-01T06:31:09.720Z,101484.25
2022-12-01T06:33:37.421Z,101477.63
2022-12-01T06:36:05.182Z,101483.22
2022-12-01T06:38:32.911Z,101483.34
2022-12-01T06:41:00.677Z,101480.50
2022-12-01T06:43:28.394Z,101481.53
2022-12-01T06:46:01.280Z,101477.91
2022-12-01T06:48:29.915Z,101479.31
2022-12-01T06:50:57.707Z,101481.53
2022-12-01T06:53:27.308Z,101485.09
2022-12-01T06:55:55.076Z,101480.34
2022-12-01T06:58:23.255Z,101484.06
2022-12-01T07:00:52.438Z,101485.94
2022-12-01T07:03:20.280Z,101481.19
2022-12-01T07:05:48.049Z,101485.78
2022-12-01T07:08:15.867Z,101487.63
2022-12-01T07:10:43.633Z,101494.25
2022-12-01T07:13:11.330Z,101500.00
2022-12-01T07:15:39.078Z,101488.97
2022-12-01T07:18:06.797Z,101503.56
2022-12-01T07:20:34.567Z,101506.28
2022-12-01T07:23:02.289Z,101508.03
2022-12-01T07:25:29.992Z,101508.16
2022-12-01T07:27:57.704Z,101506.47
2022-12-01T07:30:28.836Z,101510.16
2022-12-01T07:32:56.629Z,101509.31
2022-12-01T07:35:24.353Z,101512.03
2022-12-01T07:37:52.176Z,101523.06
2022-12-01T07:40:19.944Z,101514.19
2022-12-01T07:42:47.664Z,101524.06
2022-12-01T07:45:15.363Z,101517.91
2022-12-01T07:47:44.526Z,101523.50
2022-12-01T07:50:12.295Z,101527.22
2022-12-01T07:52:40.055Z,101529.09
2022-12-01T07:55:07.779Z,101530.13
2022-12-01T07:57:35.477Z,101532.84
2022-12-01T08:00:04.279Z,101531.13
2022-12-01T08:02:32.049Z,101526.53
2022-12-01T08:04:59.836Z,101527.72
2022-12-01T08:07:29.991Z,101531.41
2022-12-01T08:09:57.873Z,101527.00
2022-12-01T08:12:25.630Z,101528.00
2022-12-01T08:14:53.358Z,101532.44
2022-12-01T08:17:21.097Z,101530.03
2022-12-01T08:19:48.893Z,101535.78
2022-12-01T08:22:16.725Z,101527.59
2022-12-01T08:24:44.483Z,101521.47
2022-12-01T08:27:12.189Z,101516.88
2022-12-01T08:29:39.914Z,101527.75
2022-12-01T08:32:08.205Z,101524.19
2022-12-01T08:34:36.029Z,101530.47
2022-12-01T08:37:03.728Z,101538.94
2022-12-01T08:39:31.458Z,101534.66
2022-12-01T08:41:59.177Z,101533.81
2022-12-01T08:44:26.960Z,101541.78
2022-12-01T08:46:55.086Z,101544.78
2022-12-01T08:49:23.093Z,101545.22
2022-12-01T08:51:50.870Z,101543.94
2022-12-01T08:54:18.568Z,101547.94
2022-12-01T08:56:46.304Z,101543.66
2022-12-01T08:59:14.043Z,101542.09
2022-12-01T09:01:52.146Z,101536.53
2022-12-01T09:04:20.094Z,101544.22
2022-12-01T09:06:47.999Z,101550.38
2022-12-01T09:09:16.358Z,101551.22
2022-12-01T09:11:44.390Z,101549.38
2022-12-01T09:14:12.175Z,101558.78
2022-12-01T09:16:39.989Z,101560.94
2022-12-01T09:19:07.760Z,101558.69
2022-12-01T09:21:36.983Z,101553.38
2022-12-01T09:24:04.707Z,101555.66
2022-12-01T09:26:32.521Z,101555.97
2022-12-01T09:29:00.246Z,101559.53
2022-12-01T09:31:28.120Z,101552.38
2022-12-01T09:33:56.216Z,101554.09
2022-12-01T09:36:23.900Z,101548.34
2022-12-01T09:38:51.668Z,101551.38
2022-12-01T09:41:19.409Z,101539.47
2022-12-01T09:43:47.128Z,101543.06
2022-12-01T09:46:15.293Z,101550.06
2022-12-01T09:48:43.596Z,101540.06
2022-12-01T09:51:11.381Z,101542.06
2022-12-01T09:53:39.104Z,101533.72
2022-12-01T09:56:12.724Z,101535.78
2022-12-01T09:58:40.668Z,101534.75
2022-12-01T10:01:08.460Z,101538.50
2022-12-01T10:03:36.196Z,101532.03
2022-12-01T10:06:26.755Z,101534.75
2022-12-01T10:08:51.654Z,101539.47
2022-12-01T10:11:19.408Z,101536.94
2022-12-01T10:13:47.153Z,101528.78
2022-12-01T10:16:14.947Z,101531.50
2022-12-01T10:18:42.681Z,101537.91
2022-12-01T10:21:10.409Z,101530.91
2022-12-01T10:23:39.745Z,101531.75
2022-12-01T10:26:07.494Z,101529.03
2022-12-01T10:28:37.676Z,101530.91
2022-12-01T10:31:05.668Z,101522.22
2022-12-01T10:33:34.574Z,101525.63
2022-12-01T10:36:04.794Z,101522.22
2022-12-01T10:38:32.653Z,101518.63
2022-12-01T10:41:01.082Z,101519.50
2022-12-01T10:43:29.144Z,101520.66
2022-12-01T10:45:57.327Z,101515.19
2022-12-01T10:48:26.484Z,101515.19
2022-12-01T10:50:57.594Z,101516.91
2022-12-01T10:53:25.408Z,101510.06
2022-12-01T10:55:53.288Z,101517.53
2022-12-01T10:58:21.254Z,101510.75
2022-12-01T11:00:59.508Z,101508.19
2022-12-01T11:03:28.283Z,101509.47
2022-12-01T11:05:58.026Z,101510.75
2022-12-01T11:08:25.860Z,101508.34
2022-12-01T11:10:53.843Z,101509.50
2022-12-01T11:13:21.966Z,101511.06
2022-12-01T11:15:49.865Z,101502.91
2022-12-01T11:18:18.154Z,101507.19
2022-12-01T11:20:46.070Z,101509.75
2022-12-01T11:23:14.044Z,101509.16
2022-12-01T11:25:41.904Z,101497.56
2022-12-01T11:28:09.704Z,101498.72
2022-12-01T11:30:37.554Z,101494.28
2022-12-01T11:33:05.523Z,101494.28
2022-12-01T11:35:33.391Z,101488.41
2022-12-01T11:38:30.830Z,101488.41
2022-12-01T11:40:49.155Z,101482.25
2022-12-01T11:43:33.732Z,101482.78
2022-12-01T11:46:01.623Z,101478.50
2022-12-01T11:48:29.451Z,101480.56
2022-12-01T11:50:57.240Z,101478.81
2022-12-01T11:53:30.147Z,101480.69
2022-12-01T11:55:58.174Z,101478.69
2022-12-01T11:58:26.112Z,101483.09
2022-12-01T12:01:06.599Z,101468.97
2022-12-01T12:03:34.424Z,101473.69
2022-12-01T12:06:18.218Z,101473.69
2022-12-01T12:08:50.347Z,101481.72
2022-12-01T12:11:18.318Z,101477.13
2022-12-01T12:13:46.204Z,101477.97
2022-12-01T12:16:14.329Z,101475.13
2022-12-01T12:18:42.230Z,101475.38
2022-12-01T12:21:10.120Z,101466.56
2022-12-01T12:23:38.048Z,101472.84
2022-12-01T12:26:05.958Z,101467.53
2022-12-01T12:28:33.858Z,101465.97
2022-12-01T12:31:01.861Z,101455.97
2022-12-01T12:33:29.924Z,101467.13
2022-12-01T12:35:58.386Z,101467.13
2022-12-01T12:38:29.020Z,101474.31
2022-12-01T12:40:57.291Z,101468.88
2022-12-01T12:43:25.213Z,101470.88
2022-12-01T12:45:53.309Z,101476.31
2022-12-01T12:48:21.642Z,101480.06
2022-12-01T12:50:49.550Z,101475.47
2022-12-01T12:53:17.341Z,101480.06
2022-12-01T12:55:45.225Z,101473.59
2022-12-01T12:58:13.110Z,101473.72
2022-12-01T13:00:41.221Z,101467.75
2022-12-01T13:03:09.329Z,101463.88
2022-12-01T13:05:37.429Z,101467.44
2022-12-01T13:08:06.589Z,101469.19
2022-12-01T13:10:34.566Z,101467.75
2022-12-01T13:13:02.518Z,101464.00
2022-12-01T13:15:30.435Z,101462.31
2022-12-01T13:17:58.398Z,101470.16
2022-12-01T13:20:27.641Z,101463.03
2022-12-01T13:22:55.554Z,101460.31
2022-12-01T13:25:23.368Z,101462.19
2022-12-01T13:27:51.295Z,101464.72
2022-12-01T13:30:19.171Z,101463.44
2022-12-01T13:32:46.995Z,101466.28
2022-12-01T13:35:14.849Z,101464.41
2022-12-01T13:37:42.722Z,101460.31
2022-12-01T13:40:10.781Z,101453.41
2022-12-01T13:42:40.104Z,101460.53
2022-12-01T13:45:08.079Z,101463.97
2022-12-01T13:47:35.971Z,101457.69
2022-12-01T13:50:03.843Z,101467.72
2022-12-01T13:52:31.885Z,101464.81
2022-12-01T13:55:01.084Z,101455.66
2022-12-01T13:57:28.838Z,101470.25
2022-12-01T13:59:56.769Z,101463.44
2022-12-01T14:02:24.764Z,101459.16
2022-12-01T14:04:52.786Z,101450.81
2022-12-01T14:07:20.909Z,101448.09
2022-12-01T14:09:48.848Z,101459.16
2022-12-01T14:12:16.752Z,101453.72
2022-12-01T14:14:44.634Z,101447.41
2022-12-01T14:17:12.493Z,101456.56
2022-12-01T14:19:40.769Z,101456.56
2022-12-01T14:22:09.862Z,101453.84
2022-12-01T14:24:41.578Z,101456.56
2022-12-01T14:27:11.842Z,101461.28
2022-12-01T14:29:40.000Z,101450.28
2022-12-01T14:32:08.366Z,101458.56
2022-12-01T14:34:37.361Z,101447.00
2022-12-01T14:37:05.212Z,101452.59
2022-12-01T14:39:33.183Z,101448.19
2022-12-01T14:42:01.171Z,101444.56
2022-12-01T14:44:28.008Z,101444.88
2022-12-01T14:46:55.987Z,101442.22
2022-12-01T14:49:24.152Z,101448.28
2022-12-01T14:51:54.430Z,101449.25
2022-12-01T14:54:22.499Z,101446.47
2022-12-01T14:56:50.306Z,101457.09
2022-12-01T14:59:18.235Z,101455.19
2022-12-01T15:01:46.311Z,101448.56
2022-12-01T15:04:14.626Z,101445.75
2022-12-01T15:06:42.538Z,101440.59
2022-12-01T15:09:32.680Z,101436.53
2022-12-01T15:11:58.226Z,101437.78
2022-12-01T15:14:26.153Z,101433.72
2022-12-01T15:16:54.091Z,101429.91
2022-12-01T15:19:22.090Z,101437.19
2022-12-01T15:21:51.487Z,101435.66
2022-12-01T15:24:19.282Z,101430.22
2022-12-01T15:26:47.183Z,101419.78
2022-12-01T15:29:16.541Z,101428.00
2022-12-01T15:31:44.557Z,101425.75
2022-12-01T15:34:12.422Z,101423.72
2022-12-01T15:36:40.234Z,101423.25
2022-12-01T15:39:08.107Z,101423.06
2022-12-01T15:41:36.032Z,101424.56
2022-12-01T15:44:05.608Z,101431.84
2022-12-01T15:46:34.452Z,101433.31
2022-12-01T15:49:02.554Z,101434.63
2022-12-01T15:51:30.486Z,101432.34
2022-12-01T15:53:59.116Z,101434.97
2022-12-01T15:56:27.003Z,101433.34
2022-12-01T15:58:54.918Z,101439.03
2022-12-01T16:01:22.823Z,101435.88
2022-12-01T16:03:51.187Z,101440.00
2022-12-01T16:06:19.112Z,101445.41
2022-12-01T16:08:47.120Z,101453.25
2022-12-01T16:11:15.040Z,101446.09
2022-12-01T16:13:42.962Z,101441.81
2022-12-01T16:16:10.987Z,101447.94
2022-12-01T16:18:38.850Z,101438.38
2022-12-01T16:21:06.724Z,101445.72
2022-12-01T16:23:34.550Z,101445.69
2022-12-01T16:26:02.490Z,101443.06
2022-12-01T16:28:30.453Z,101441.28
2022-12-01T16:30:58.326Z,101448.66
2022-12-01T16:33:26.216Z,101453.31
2022-12-01T16:35:53.983Z,101452.56
2022-12-01T16:38:22.586Z,101453.97
2022-12-01T16:40:50.595Z,101456.00
2022-12-01T16:43:18.389Z,101465.94
2022-12-01T16:45:46.363Z,101469.41
2022-12-01T16:48:14.317Z,101476.41
2022-12-01T16:50:42.129Z,101472.16
2022-12-01T16:53:11.847Z,101469.41
2022-12-01T16:55:39.634Z,101467.81
2022-12-01T16:58:07.479Z,101462.41
2022-12-01T17:00:35.345Z,101462.06
2022-12-01T17:03:03.167Z,101463.94
2022-12-01T17:05:31.075Z,101469.03
2022-12-01T17:07:58.997Z,101469.25
2022-12-01T17:10:26.867Z,101466.50
2022-12-01T17:12:54.663Z,101461.09
2022-12-01T17:15:22.551Z,101461.41
2022-12-01T17:17:51.382Z,101465.00
2022-12-01T17:20:19.320Z,101466.13
2022-12-01T17:22:47.236Z,101461.03
2022-12-01T17:25:15.047Z,101454.91
2022-12-01T17:27:44.080Z,101456.91
2022-12-01T17:30:11.916Z,101457.50
2022-12-01T17:32:39.851Z,101455.88
2022-12-01T17:35:07.851Z,101466.13
2022-12-01T17:37:36.915Z,101459.59
2022-12-01T17:40:04.731Z,101459.00
2022-12-01T17:42:32.591Z,101460.69
2022-12-01T17:45:00.380Z,101465.06
2022-12-01T17:47:28.383Z,101465.91
2022-12-01T17:49:56.281Z,101458.06
2022-12-01T17:52:28.171Z,101463.44
2022-12-01T17:54:56.555Z,101465.56
2022-12-01T17:57:24.348Z,101454.34
2022-12-01T17:59:52.157Z,101456.47
2022-12-01T18:02:20.019Z,101455.41
2022-12-01T18:04:47.981Z,101454.75
2022-12-01T18:07:15.881Z,101462.19
2022-12-01T18:09:43.839Z,101460.94
2022-12-01T18:12:11.637Z,101463.88
2022-12-01T18:14:40.768Z,101465.19
2022-12-01T18:17:08.528Z,101458.38
2022-12-01T18:19:36.390Z,101461.56
2022-12-01T18:22:04.216Z,101457.94
2022-12-01T18:24:33.892Z,101463.84
2022-12-01T18:27:01.655Z,101460.81
2022-12-01T18:29:29.598Z,101462.13
2022-12-01T18:31:57.401Z,101459.59
2022-12-01T18:34:25.219Z,101450.81
2022-12-01T18:36:53.089Z,101453.53
2022-12-01T18:39:20.864Z,101449.03
2022-12-01T18:41:48.691Z,101453.91
2022-12-01T18:44:16.513Z,101454.97
2022-12-01T18:46:44.328Z,101448.38
2022-12-01T18:49:12.153Z,101446.00
2022-12-01T18:51:40.110Z,101448.19
2022-12-01T18:54:07.891Z,101448.28
2022-12-01T18:56:35.661Z,101453.47
2022-12-01T18:59:03.517Z,101442.84
2022-12-01T19:01:32.241Z,101446.31
2022-12-01T19:04:00.197Z,101449.97
2022-12-01T19:06:28.157Z,101445.41
2022-12-01T19:08:57.972Z,101446.41
2022-12-01T19:11:25.866Z,101455.38
2022-12-01T19:13:53.782Z,101453.97
2022-12-01T19:16:21.763Z,101452.03
2022-12-01T19:18:49.799Z,101448.13
2022-12-01T19:21:17.660Z,101453.69
2022-12-01T19:23:45.571Z,101448.81
2022-12-01T19:26:13.468Z,101451.81
2022-12-01T19:28:42.430Z,101445.19
2022-12-01T19:31:11.295Z,101449.81
2022-12-01T19:33:39.422Z,101443.84
2022-12-01T19:36:07.215Z,101448.41
2022-12-01T19:38:35.089Z,101448.41
2022-12-01T19:41:02.866Z,101445.91
2022-12-01T19:43:30.784Z,101453.66
2022-12-01T19:45:58.671Z,101441.78
2022-12-01T19:48:26.536Z,101445.47
2022-12-01T19:50:54.322Z,101445.44
2022-12-01T19:53:22.512Z,101450.47
2022-12-01T19:55:50.323Z,101451.03
2022-12-01T19:58:18.135Z,101451.88
2022-12-01T20:00:46.199Z,101451.81
2022-12-01T20:03:14.008Z,101446.06
2022-12-01T20:05:41.775Z,101442.19
2022-12-01T20:08:13.478Z,101442.38
2022-12-01T20:10:41.275Z,101445.59
2022-12-01T20:13:10.275Z,101446.50
2022-12-01T20:15:39.395Z,101440.09
2022-12-01T20:18:07.173Z,101441.00
2022-12-01T20:20:35.036Z,101449.28
2022-12-01T20:23:02.868Z,101443.75
2022-12-01T20:25:30.678Z,101446.00
2022-12-01T20:27:58.542Z,101445.00
2022-12-01T20:30:27.669Z,101444.59
2022-12-01T20:32:55.436Z,101436.97
2022-12-01T20:35:23.250Z,101440.34
2022-12-01T20:37:51.094Z,101441.13
2022-12-01T20:40:18.993Z,101438.75
2022-12-01T20:42:46.792Z,101435.88
2022-12-01T20:45:14.523Z,101427.72
2022-12-01T20:47:42.391Z,101439.25
2022-12-01T20:50:10.249Z,101442.41
2022-12-01T20:52:42.057Z,101433.88
2022-12-01T20:55:09.807Z,101432.34
2022-12-01T20:57:37.583Z,101431.66
2022-12-01T21:00:05.396Z,101431.59
2022-12-01T21:02:33.183Z,101430.00
2022-12-01T21:05:01.557Z,101433.31
2022-12-01T21:07:29.475Z,101427.41
2022-12-01T21:09:57.214Z,101433.31
2022-12-01T21:12:42.808Z,101427.19
2022-12-01T21:15:10.516Z,101426.72
2022-12-01T21:17:38.329Z,101433.44
2022-12-01T21:20:06.976Z,101428.88
2022-12-01T21:22:34.721Z,101429.72
2022-12-01T21:25:04.800Z,101424.44
2022-12-01T21:27:32.543Z,101430.97
2022-12-01T21:30:00.266Z,101427.38
2022-12-01T21:32:28.018Z,101421.94
2022-12-01T21:34:55.828Z,101415.66
2022-12-01T21:37:23.717Z,101415.66
2022-12-01T21:39:51.487Z,101416.53
2022-12-01T21:42:19.190Z,101417.41
2022-12-01T21:44:46.884Z,101412.78
2022-12-01T21:47:14.619Z,101418.03
2022-12-01T21:49:42.396Z,101414.13
2022-12-01T21:52:10.109Z,101409.34
2022-12-01T21:54:37.901Z,101412.78
2022-12-01T21:57:05.701Z,101407.28
2022-12-01T21:59:33.430Z,101410.69
2022-12-01T22:02:01.149Z,101406.94
2022-12-01T22:04:28.842Z,101406.91
2022-12-01T22:06:56.554Z,101401.44
2022-12-01T22:09:24.259Z,101399.41
2022-12-01T22:11:52.065Z,101401.09
2022-12-01T22:14:19.794Z,101400.00
2022-12-01T22:16:47.607Z,101402.91
2022-12-01T22:19:15.409Z,101408.88
2022-12-01T22:21:43.122Z,101400.47
2022-12-01T22:24:10.815Z,101401.00
2022-12-01T22:26:38.580Z,101401.63
2022-12-01T22:29:06.319Z,101396.38
2022-12-01T22:31:34.296Z,101392.25
2022-12-01T22:34:03.457Z,101391.56
2022-12-01T22:36:31.445Z,101389.16
2022-12-01T22:38:59.338Z,101388.66
2022-12-01T22:41:27.074Z,101393.41
2022-12-01T22:43:55.088Z,101386.06
2022-12-01T22:46:22.949Z,101391.53
2022-12-01T22:48:50.900Z,101388.97
2022-12-01T22:51:18.932Z,101384.84
2022-12-01T22:53:46.662Z,101385.88
2022-12-01T22:56:14.612Z,101385.19
2022-12-01T22:58:42.378Z,101385.53
2022-12-01T23:01:10.206Z,101388.25
2022-12-01T23:03:38.084Z,101381.78
2022-12-01T23:06:05.843Z,101383.78
2022-12-01T23:08:33.603Z,101382.09
2022-12-01T23:11:01.496Z,101379.53
2022-12-01T23:13:29.348Z,101381.41
2022-12-01T23:15:57.187Z,101374.25
2022-12-01T23:18:25.012Z,101374.56
2022-12-01T23:20:52.930Z,101377.47
2022-12-01T23:23:20.857Z,101377.63
2022-12-01T23:25:48.651Z,101376.91
2022-12-01T23:28:16.435Z,101371.31
2022-12-01T23:30:44.274Z,101365.34
2022-12-01T23:33:12.073Z,101366.53
2022-12-01T23:35:39.964Z,101369.41
2022-12-01T23:38:07.804Z,101363.94
2022-12-01T23:40:35.574Z,101362.59
2022-12-01T23:43:03.402Z,101359.16
2022-12-01T23:45:31.185Z,101355.41
2022-12-01T23:47:58.938Z,101355.41
2022-12-01T23:50:26.711Z,101350.28
2022-12-01T23:52:54.444Z,101349.88
2022-12-01T23:55:22.769Z,101350.91
2022-12-01T23:57:50.623Z,101350.03
